createdAt,value
2022-11-28T00:01:00.784Z,22.80
2022-11-28T00:03:48.885Z,24.90
2022-11-28T00:06:40.272Z,24.10
2022-11-28T00:09:28.166Z,24.00
2022-11-28T00:12:15.976Z,22.70
2022-11-28T00:15:05.663Z,21.00
2022-11-28T00:17:53.058Z,20.40
2022-11-28T00:20:40.882Z,18.90
2022-11-28T00:23:29.046Z,17.70
2022-11-28T00:26:21.246Z,19.70
2022-11-28T00:29:11.100Z,19.80
2022-11-28T00:31:59.980Z,19.80
2022-11-28T00:34:47.471Z,20.40
2022-11-28T00:37:35.670Z,20.00
2022-11-28T00:40:23.472Z,20.40
2022-11-28T00:43:12.926Z,19.50
2022-11-28T00:46:07.564Z,19.60
2022-11-28T00:48:55.818Z,18.50
2022-11-28T00:51:43.652Z,19.10
2022-11-28T00:54:31.593Z,20.80
2022-11-28T00:57:19.288Z,19.50
2022-11-28T01:00:08.512Z,15.10
2022-11-28T01:02:56.165Z,18.20
2022-11-28T01:05:43.888Z,17.80
2022-11-28T01:08:31.667Z,18.10
2022-11-28T01:11:20.406Z,16.20
2022-11-28T01:14:09.184Z,18.00
2022-11-28T01:16:56.644Z,15.70
2022-11-28T01:19:44.226Z,15.90
2022-11-28T01:22:31.858Z,14.60
2022-11-28T01:25:19.465Z,13.10
2022-11-28T01:28:07.151Z,15.40
2022-11-28T01:30:54.972Z,13.70
2022-11-28T01:33:43.233Z,14.70
2022-11-28T01:36:31.003Z,14.40
2022-11-28T01:39:18.652Z,12.50
2022-11-28T01:42:06.288Z,12.30
2022-11-28T01:44:53.798Z,14.30
2022-11-28T01:47:41.649Z,13.20
2022-11-28T01:50:31.704Z,13.90
2022-11-28T01:53:20.305Z,14.80
2022-11-28T01:56:28.818Z,12.40
2022-11-28T01:59:16.517Z,12.50
2022-11-28T02:02:15.261Z,15.70
2022-11-28T02:05:04.378Z,14.60
2022-11-28T02:07:52.874Z,15.60
2022-11-28T02:11:30.537Z,15.40
2022-11-28T02:14:42.542Z,15.90
2022-11-28T02:17:45.406Z,15.90
2022-11-28T02:21:00.491Z,14.90
2022-11-28T02:24:12.665Z,15.60
2022-11-28T02:27:27.492Z,17.10
2022-11-28T02:30:44.670Z,16.00
2022-11-28T02:33:36.160Z,16.60
2022-11-28T02:36:36.240Z,14.60
2022-11-28T02:39:37.811Z,14.70
2022-11-28T02:42:43.226Z,15.30
2022-11-28T02:46:11.962Z,15.00
2022-11-28T02:49:07.489Z,16.30
2022-11-28T02:52:06.850Z,14.90
2022-11-28T02:54:55.370Z,13.90
2022-11-28T02:57:51.325Z,16.40
2022-11-28T03:00:44.881Z,14.80
2022-11-28T03:03:52.887Z,17.50
2022-11-28T03:07:09.563Z,15.70
2022-11-28T03:10:15.478Z,15.10
2022-11-28T03:13:19.802Z,14.00
2022-11-28T03:16:51.079Z,12.30
2022-11-28T03:19:52.064Z,11.90
2022-11-28T03:23:16.181Z,12.90
2022-11-28T03:26:41.100Z,12.30
2022-11-28T03:29:59.934Z,11.30
2022-11-28T03:32:51.839Z,13.30
2022-11-28T03:35:49.109Z,12.00
2022-11-28T03:38:46.933Z,12.80
2022-11-28T03:42:08.224Z,11.20
2022-11-28T03:45:11.468Z,11.20
2022-11-28T03:48:18.557Z,11.60
2022-11-28T03:51:37.027Z,12.90
2022-11-28T03:54:45.493Z,11.70
2022-11-28T03:58:07.782Z,10.20
2022-11-28T04:01:28.013Z,9.30
2022-11-28T04:04:37.196Z,9.60
2022-11-28T04:07:42.994Z,11.70
2022-11-28T04:10:56.772Z,11.50
2022-11-28T04:13:57.366Z,12.00
2022-11-28T04:16:54.128Z,12.00
2022-11-28T04:19:49.940Z,10.50
2022-11-28T04:22:55.672Z,9.50
2022-11-28T04:25:58.265Z,10.70
2022-11-28T04:28:49.678Z,10.70
2022-11-28T04:31:40.419Z,10.50
2022-11-28T04:34:30.836Z,10.40
2022-11-28T04:37:20.443Z,9.20
2022-11-28T04:40:11.891Z,10.90
2022-11-28T04:43:05.550Z,10.20
2022-11-28T04:45:59.847Z,9.70
2022-11-28T04:48:47.763Z,10.20
2022-11-28T04:51:59.488Z,10.00
2022-11-28T04:54:59.393Z,8.60
2022-11-28T04:57:57.549Z,9.60
2022-11-28T05:00:46.481Z,9.70
2022-11-28T05:03:36.801Z,10.80
2022-11-28T05:06:35.126Z,6.70
2022-11-28T05:09:22.789Z,10.90
2022-11-28T05:12:10.595Z,10.70
2022-11-28T05:14:58.300Z,7.80
2022-11-28T05:17:47.046Z,8.60
2022-11-28T05:20:35.423Z,6.40
2022-11-28T05:23:22.969Z,10.00
2022-11-28T05:26:14.770Z,7.70
2022-11-28T05:29:02.852Z,9.40
2022-11-28T05:31:50.485Z,9.00
2022-11-28T05:34:38.459Z,8.50
2022-11-28T05:37:26.080Z,8.70
2022-11-28T05:40:13.886Z,11.40
2022-11-28T05:43:01.435Z,8.70
2022-11-28T05:45:49.309Z,9.20
2022-11-28T05:48:36.915Z,8.30
2022-11-28T05:51:24.929Z,8.60
2022-11-28T05:54:12.482Z,9.00
2022-11-28T05:56:59.979Z,9.90
2022-11-28T05:59:47.460Z,8.10
2022-11-28T06:02:36.392Z,8.60
2022-11-28T06:05:41.527Z,9.40
2022-11-28T06:08:30.421Z,8.50
2022-11-28T06:11:20.528Z,9.30
2022-11-28T06:14:08.360Z,9.10
2022-11-28T06:16:56.111Z,9.00
2022-11-28T06:19:43.677Z,8.60
2022-11-28T06:22:31.973Z,9.50
2022-11-28T06:25:19.589Z,8.70
2022-11-28T06:28:07.209Z,9.30
2022-11-28T06:30:54.942Z,10.80
2022-11-28T06:33:43.106Z,9.10
2022-11-28T06:36:31.081Z,10.00
2022-11-28T06:39:18.908Z,10.10
2022-11-28T06:42:06.662Z,11.90
2022-11-28T06:44:54.233Z,10.80
2022-11-28T06:47:42.000Z,10.80
2022-11-28T06:50:29.548Z,11.50
2022-11-28T06:53:18.645Z,12.20
2022-11-28T06:56:09.541Z,11.30
2022-11-28T06:58:59.506Z,13.70
2022-11-28T07:01:48.668Z,12.80
2022-11-28T07:04:35.903Z,12.40
2022-11-28T07:07:23.719Z,9.80
2022-11-28T07:10:12.120Z,10.40
2022-11-28T07:13:05.168Z,10.70
2022-11-28T07:15:53.153Z,9.60
2022-11-28T07:18:40.945Z,9.70
2022-11-28T07:21:29.019Z,10.90
2022-11-28T07:24:20.022Z,9.20
2022-11-28T07:27:07.515Z,8.40
2022-11-28T07:29:55.145Z,9.30
2022-11-28T07:32:42.849Z,9.10
2022-11-28T07:35:33.824Z,9.40
2022-11-28T07:38:21.769Z,9.30
2022-11-28T07:41:13.572Z,8.50
2022-11-28T07:44:03.705Z,10.30
2022-11-28T07:46:51.244Z,7.70
2022-11-28T07:49:39.215Z,7.90
2022-11-28T07:52:26.713Z,8.60
2022-11-28T07:55:14.619Z,9.30
2022-11-28T07:58:04.143Z,7.40
2022-11-28T08:00:51.454Z,8.70
2022-11-28T08:03:39.323Z,9.10
2022-11-28T08:06:30.809Z,9.40
2022-11-28T08:09:19.447Z,10.10
2022-11-28T08:12:07.355Z,9.30
2022-11-28T08:14:55.110Z,11.80
2022-11-28T08:17:42.953Z,11.20
2022-11-28T08:20:30.869Z,10.50
2022-11-28T08:23:18.198Z,6.70
2022-11-28T08:26:10.408Z,10.00
2022-11-28T08:28:59.689Z,11.10
2022-11-28T08:31:47.322Z,9.50
2022-11-28T08:34:35.177Z,9.30
2022-11-28T08:37:23.074Z,10.30
2022-11-28T08:40:11.014Z,10.10
2022-11-28T08:42:59.459Z,10.30
2022-11-28T08:45:48.283Z,10.30
2022-11-28T08:48:37.706Z,10.20
2022-11-28T08:51:25.090Z,9.00
2022-11-28T08:54:12.767Z,9.00
2022-11-28T08:57:01.593Z,8.30
2022-11-28T08:59:49.278Z,8.20
2022-11-28T09:02:36.899Z,9.60
2022-11-28T09:05:24.320Z,10.10
2022-11-28T09:08:16.639Z,10.20
2022-11-28T09:11:09.797Z,10.60
2022-11-28T09:13:57.726Z,11.30
2022-11-28T09:16:45.574Z,10.20
2022-11-28T09:19:33.226Z,9.90
2022-11-28T09:22:21.173Z,9.30
2022-11-28T09:25:09.207Z,11.00
2022-11-28T09:27:56.752Z,10.50
2022-11-28T09:30:45.018Z,10.10
2022-11-28T09:33:33.414Z,9.00
2022-11-28T09:36:23.922Z,9.50
2022-11-28T09:39:11.750Z,8.30
2022-11-28T09:42:30.522Z,9.40
2022-11-28T09:45:22.361Z,8.60
2022-11-28T09:48:45.727Z,8.60
2022-11-28T09:51:45.447Z,8.40
2022-11-28T09:54:52.354Z,9.30
2022-11-28T09:57:50.339Z,9.50
2022-11-28T10:01:00.238Z,9.70
2022-11-28T10:04:36.350Z,9.80
2022-11-28T10:08:09.857Z,7.50
2022-11-28T10:11:38.354Z,10.30
2022-11-28T10:14:51.423Z,10.70
2022-11-28T10:18:19.197Z,9.50
2022-11-28T10:21:34.978Z,8.30
2022-11-28T10:24:35.453Z,9.00
2022-11-28T10:27:32.940Z,9.30
2022-11-28T10:30:38.385Z,8.10
2022-11-28T10:33:38.138Z,8.50
2022-11-28T10:36:47.211Z,9.80
2022-11-28T10:39:39.997Z,9.20
2022-11-28T10:43:06.369Z,8.20
2022-11-28T10:46:13.206Z,9.40
2022-11-28T10:49:00.718Z,9.30
2022-11-28T10:52:15.813Z,11.00
2022-11-28T10:55:25.234Z,9.50
2022-11-28T10:58:27.643Z,11.20
2022-11-28T11:01:15.938Z,11.70
2022-11-28T11:04:13.106Z,10.50
2022-11-28T11:07:29.719Z,10.30
2022-11-28T11:10:44.526Z,10.20
2022-11-28T11:13:55.268Z,10.80
2022-11-28T11:16:55.924Z,12.80
2022-11-28T11:19:43.591Z,11.40
2022-11-28T11:22:32.595Z,13.10
2022-11-28T11:25:23.005Z,12.20
2022-11-28T11:28:40.380Z,11.20
2022-11-28T11:31:32.590Z,11.40
2022-11-28T11:34:23.453Z,11.30
2022-11-28T11:37:33.308Z,12.20
2022-11-28T11:40:30.107Z,11.90
2022-11-28T11:43:33.231Z,12.00
2022-11-28T11:46:21.927Z,12.10
2022-11-28T11:49:28.715Z,11.30
2022-11-28T11:52:24.158Z,12.80
2022-11-28T11:55:17.478Z,12.20
2022-11-28T11:58:09.320Z,10.80
2022-11-28T12:01:00.007Z,11.90
2022-11-28T12:04:17.785Z,13.80
2022-11-28T12:07:52.611Z,13.80
2022-11-28T12:11:00.290Z,13.10
2022-11-28T12:13:49.198Z,12.40
2022-11-28T12:16:42.696Z,11.70
2022-11-28T12:19:37.176Z,11.10
2022-11-28T12:22:43.814Z,11.90
2022-11-28T12:25:49.441Z,12.10
2022-11-28T12:29:12.541Z,10.30
2022-11-28T12:32:36.952Z,11.20
2022-11-28T12:35:41.170Z,11.30
2022-11-28T12:39:32.097Z,12.20
2022-11-28T12:42:38.411Z,13.00
2022-11-28T12:45:41.637Z,12.30
2022-11-28T12:48:54.803Z,13.30
2022-11-28T12:52:13.156Z,12.50
2022-11-28T12:55:30.344Z,13.70
2022-11-28T12:58:35.599Z,12.00
2022-11-28T13:01:53.651Z,13.20
2022-11-28T13:05:10.684Z,10.70
2022-11-28T13:08:19.333Z,12.10
2022-11-28T13:11:24.287Z,11.70
2022-11-28T13:14:29.452Z,12.50
2022-11-28T13:17:23.361Z,12.60
2022-11-28T13:20:39.085Z,12.50
2022-11-28T13:23:46.438Z,20.40
2022-11-28T13:26:59.113Z,12.80
2022-11-28T13:30:06.707Z,13.20
2022-11-28T13:33:21.968Z,13.10
2022-11-28T13:39:58.702Z,12.10
2022-11-28T13:43:09.612Z,11.90
2022-11-28T13:45:57.331Z,11.20
2022-11-28T13:52:17.367Z,12.60
2022-11-28T13:55:05.107Z,12.10
2022-11-28T13:57:52.502Z,11.70
2022-11-28T14:00:40.560Z,12.90
2022-11-28T14:03:31.658Z,11.00
2022-11-28T14:06:24.010Z,11.50
2022-11-28T14:09:25.386Z,13.40
2022-11-28T14:12:27.772Z,13.00
2022-11-28T14:16:07.767Z,12.20
2022-11-28T14:19:44.568Z,11.70
2022-11-28T14:22:47.420Z,12.00
2022-11-28T14:25:51.459Z,11.30
2022-11-28T14:28:44.749Z,10.80
2022-11-28T14:31:40.124Z,12.30
2022-11-28T14:34:49.036Z,13.20
2022-11-28T14:37:53.755Z,12.80
2022-11-28T14:40:56.908Z,12.40
2022-11-28T14:43:48.747Z,12.40
2022-11-28T14:46:36.501Z,12.50
2022-11-28T14:49:24.245Z,13.20
2022-11-28T14:52:40.979Z,13.30
2022-11-28T14:55:30.285Z,13.00
2022-11-28T14:58:17.632Z,13.10
2022-11-28T15:01:13.403Z,11.60
2022-11-28T15:04:59.170Z,12.20
2022-11-28T15:08:15.136Z,11.10
2022-11-28T15:11:15.548Z,12.00
2022-11-28T15:14:23.763Z,11.90
2022-11-28T15:17:14.625Z,12.30
2022-11-28T15:20:20.549Z,12.00
2022-11-28T15:23:32.615Z,12.20
2022-11-28T15:26:30.776Z,11.40
2022-11-28T15:29:28.658Z,11.10
2022-11-28T15:32:16.736Z,12.00
2022-11-28T15:35:12.353Z,12.10
2022-11-28T15:38:00.546Z,13.30
2022-11-28T15:40:55.043Z,12.60
2022-11-28T15:43:45.975Z,13.00
2022-11-28T15:46:34.710Z,13.00
2022-11-28T15:49:32.356Z,12.20
2022-11-28T15:52:19.775Z,13.20
2022-11-28T15:55:17.392Z,12.70
2022-11-28T15:58:19.429Z,12.10
2022-11-28T16:01:27.964Z,13.90
2022-11-28T16:04:18.762Z,13.40
2022-11-28T16:07:06.865Z,14.40
2022-11-28T16:10:22.224Z,14.00
2022-11-28T16:13:14.040Z,13.00
2022-11-28T16:16:04.274Z,14.40
2022-11-28T16:18:59.308Z,13.70
2022-11-28T16:22:11.847Z,13.50
2022-11-28T16:25:12.119Z,14.70
2022-11-28T16:28:00.005Z,13.20
2022-11-28T16:30:48.475Z,13.30
2022-11-28T16:33:44.947Z,14.60
2022-11-28T16:36:37.207Z,14.50
2022-11-28T16:39:24.837Z,13.50
2022-11-28T16:42:17.963Z,14.70
2022-11-28T16:45:22.120Z,15.30
2022-11-28T16:48:17.253Z,15.90
2022-11-28T16:51:10.749Z,15.00
2022-11-28T16:54:00.919Z,15.20
2022-11-28T16:56:48.945Z,14.70
2022-11-28T16:59:37.019Z,17.30
2022-11-28T17:02:29.164Z,16.60
2022-11-28T17:05:17.818Z,18.30
2022-11-28T17:08:05.397Z,16.50
2022-11-28T17:10:55.621Z,17.40
2022-11-28T17:13:43.146Z,17.50
2022-11-28T17:16:37.006Z,16.70
2022-11-28T17:19:24.829Z,16.30
2022-11-28T17:22:15.790Z,17.40
2022-11-28T17:25:05.904Z,17.50
2022-11-28T17:27:53.516Z,17.30
2022-11-28T17:30:41.585Z,17.20
2022-11-28T17:33:29.414Z,16.60
2022-11-28T17:36:17.154Z,16.50
2022-11-28T17:39:05.496Z,17.10
2022-11-28T17:41:54.080Z,17.40
2022-11-28T17:44:41.813Z,16.90
2022-11-28T17:47:30.038Z,17.30
2022-11-28T17:50:19.024Z,17.60
2022-11-28T17:53:07.865Z,18.80
2022-11-28T17:55:59.724Z,18.70
2022-11-28T17:58:48.596Z,17.10
2022-11-28T18:01:36.124Z,19.00
2022-11-28T18:04:24.414Z,17.70
2022-11-28T18:07:12.307Z,17.00
2022-11-28T18:09:59.559Z,18.60
2022-11-28T18:12:47.010Z,19.00
2022-11-28T18:15:35.895Z,18.20
2022-11-28T18:18:23.893Z,19.10
2022-11-28T18:21:13.169Z,19.10
2022-11-28T18:24:00.870Z,18.00
2022-11-28T18:26:48.746Z,19.50
2022-11-28T18:29:36.781Z,20.50
2022-11-28T18:32:24.646Z,19.50
2022-11-28T18:35:12.372Z,17.30
2022-11-28T18:38:00.162Z,18.40
2022-11-28T18:40:48.200Z,18.80
2022-11-28T18:43:36.949Z,19.30
2022-11-28T18:46:26.107Z,18.20
2022-11-28T18:49:16.631Z,20.00
2022-11-28T18:52:04.559Z,19.00
2022-11-28T18:54:52.428Z,19.60
2022-11-28T18:57:41.492Z,20.10
2022-11-28T19:00:29.388Z,16.40
2022-11-28T19:03:16.863Z,19.30
2022-11-28T19:06:12.208Z,21.20
2022-11-28T19:09:03.973Z,14.50
2022-11-28T19:11:51.974Z,20.30
2022-11-28T19:14:39.729Z,20.80
2022-11-28T19:17:27.246Z,20.30
2022-11-28T19:20:15.317Z,19.60
2022-11-28T19:23:03.188Z,18.10
2022-11-28T19:25:51.263Z,18.70
2022-11-28T19:28:41.855Z,18.70
2022-11-28T19:31:33.884Z,17.90
2022-11-28T19:34:21.756Z,15.20
2022-11-28T19:37:09.491Z,17.10
2022-11-28T19:40:02.323Z,18.90
2022-11-28T19:42:50.965Z,18.60
2022-11-28T19:45:39.058Z,17.40
2022-11-28T19:48:30.142Z,17.40
2022-11-28T19:51:19.526Z,18.00
2022-11-28T19:54:09.007Z,17.70
2022-11-28T19:56:58.672Z,18.10
2022-11-28T19:59:46.721Z,18.30
2022-11-28T20:02:34.555Z,16.60
2022-11-28T20:05:22.814Z,17.20
2022-11-28T20:08:10.734Z,14.60
2022-11-28T20:10:58.478Z,16.90
2022-11-28T20:13:47.415Z,16.30
2022-11-28T20:16:36.771Z,15.80
2022-11-28T20:19:24.672Z,16.70
2022-11-28T20:22:13.254Z,16.50
2022-11-28T20:25:01.964Z,15.30
2022-11-28T20:27:49.676Z,16.80
2022-11-28T20:30:37.044Z,17.20
2022-11-28T20:33:24.602Z,17.60
2022-11-28T20:36:16.618Z,17.50
2022-11-28T20:39:05.250Z,18.60
2022-11-28T20:41:52.916Z,17.60
2022-11-28T20:44:40.745Z,17.40
2022-11-28T20:47:28.926Z,15.10
2022-11-28T20:50:16.670Z,17.60
2022-11-28T20:53:04.293Z,16.80
2022-11-28T20:56:03.941Z,17.30
2022-11-28T20:58:52.529Z,15.60
2022-11-28T21:01:40.064Z,14.30
2022-11-28T21:04:27.795Z,15.30
2022-11-28T21:07:15.266Z,15.70
2022-11-28T21:10:03.835Z,16.30
2022-11-28T21:12:51.415Z,16.20
2022-11-28T21:15:42.106Z,16.40
2022-11-28T21:18:29.779Z,16.50
2022-11-28T21:21:21.276Z,17.60
2022-11-28T21:24:12.430Z,18.20
2022-11-28T21:27:00.116Z,16.90
2022-11-28T21:29:52.170Z,14.20
2022-11-28T21:32:39.828Z,16.90
2022-11-28T21:35:27.478Z,17.60
2022-11-28T21:38:14.830Z,17.10
2022-11-28T21:41:02.905Z,16.00
2022-11-28T21:43:50.461Z,16.10
2022-11-28T21:46:38.555Z,17.40
2022-11-28T21:49:26.346Z,17.90
2022-11-28T21:52:16.077Z,18.30
2022-11-28T21:55:05.847Z,17.90
2022-11-28T21:57:53.308Z,16.70
2022-11-28T22:00:53.214Z,17.30
2022-11-28T22:03:44.732Z,18.20
2022-11-28T22:06:33.035Z,17.10
2022-11-28T22:09:20.349Z,17.40
2022-11-28T22:12:08.257Z,16.20
2022-11-28T22:14:56.377Z,18.80
2022-11-28T22:17:43.882Z,17.90
2022-11-28T22:20:31.220Z,17.40
2022-11-28T22:23:20.984Z,18.40
2022-11-28T22:26:08.833Z,19.00
2022-11-28T22:28:56.355Z,17.50
2022-11-28T22:31:44.406Z,17.90
2022-11-28T22:34:36.964Z,18.20
2022-11-28T22:37:27.392Z,19.10
2022-11-28T22:40:15.696Z,18.20
2022-11-28T22:43:04.951Z,17.50
2022-11-28T22:45:58.340Z,17.70
2022-11-28T22:48:46.078Z,17.20
2022-11-28T22:51:34.189Z,18.30
2022-11-28T22:54:22.364Z,17.20
2022-11-28T22:57:11.250Z,17.50
2022-11-28T22:59:58.992Z,18.20
2022-11-28T23:02:46.991Z,17.30
2022-11-28T23:05:38.754Z,19.20
2022-11-28T23:08:29.125Z,16.20
2022-11-28T23:11:23.825Z,15.60
2022-11-28T23:14:14.233Z,17.00
2022-11-28T23:17:02.754Z,17.20
2022-11-28T23:19:51.128Z,18.80
2022-11-28T23:22:38.632Z,16.90
2022-11-28T23:25:26.402Z,17.90
2022-11-28T23:28:14.817Z,17.30
2022-11-28T23:31:19.679Z,17.30
2022-11-28T23:34:09.388Z,18.20
2022-11-28T23:36:58.799Z,17.30
2022-11-28T23:39:47.438Z,18.30
2022-11-28T23:42:36.475Z,17.20
2022-11-28T23:45:24.022Z,16.70
2022-11-28T23:48:11.289Z,18.10
2022-11-28T23:50:59.211Z,16.60
2022-11-28T23:53:48.171Z,16.90
2022-11-28T23:56:37.384Z,16.40
2022-11-28T23:59:25.167Z,17.40
